EDT,Max TemperatureF,Mean TemperatureF,Min TemperatureF,Max Dew PointF,MeanDew PointF,Min DewpointF,Max Humidity, Mean Humidity, Min Humidity, Max Sea Level PressureIn, Mean Sea Level PressureIn, Min Sea Level PressureIn, Max VisibilityMiles, Mean VisibilityMiles, Min VisibilityMiles, Max Wind SpeedMPH, Mean Wind SpeedMPH, Max Gust SpeedMPH,PrecipitationIn, CloudCover, Events, WindDirDegrees
2013-7-1,78,73,68,77,71,68,100,93,69,30.02,29.93,29.83,10,9,2,12,5,9,0.00,7,Rain,154
2013-7-2,78,74,71,75,73,68,100,94,69,30.18,30.10,30.03,10,10,7,14,8,20,0.00,7,Rain,155
2013-7-3,82,76,71,77,73,72,100,97,70,30.25,30.20,30.16,10,10,3,10,4,16,0.00,4,Rain,121
2013-7-4,86,78,69,79,72,68,100,86,55,30.25,30.22,30.17,10,9,3,15,6,21,0.00,5,Rain,135
2013-7-5,86,78,71,79,74,70,100,93,58,30.28,30.25,30.21,10,9,4,22,5,28,0.00,5,Rain,138
2013-7-6,86,78,71,77,73,68,100,89,55,30.26,30.22,30.16,10,8,2,22,6,32,0.00,6,Rain,131
2013-7-7,86,80,73,77,73,68,100,88,58,30.24,30.19,30.13,10,9,7,12,5,16,0.00,5,Rain,180
2013-7-8,87,79,71,77,72,68,100,86,52,30.24,30.21,30.17,10,10,10,13,4,18,0.00,3,Rain,198
2013-7-9,89,80,71,77,72,68,100,79,49,30.23,30.19,30.12,10,10,7,10,5,,0.00,3,,193
2013-7-10,86,78,71,77,72,68,100,86,58,30.17,30.10,30.02,10,10,7,18,4,23,0.00,3,Rain,202
2013-7-11,89,80,71,75,72,66,100,86,49,30.04,29.99,29.93,10,10,2,13,6,17,0.00,4,Rain,207
2013-7-12,82,76,69,75,71,63,100,86,66,30.02,29.96,29.91,10,9,2,12,4,18,0.00,5,Rain,140
2013-7-13,80,74,69,77,72,68,100,95,70,30.10,30.06,30.01,10,9,5,12,6,,0.00,5,Rain,58
2013-7-14,82,76,69,77,73,68,100,94,62,30.28,30.20,30.11,10,9,3,21,6,29,0.00,5,Rain,98
2013-7-15,86,78,71,77,72,68,100,88,58,30.32,30.29,30.27,10,9,3,16,5,22,0.00,4,,61
2013-7-16,89,79,69,77,69,61,100,76,38,30.35,30.31,30.27,10,9,0,9,2,,0.00,1,Fog,77
2013-7-17,93,81,69,79,71,66,100,84,41,30.29,30.25,30.15,10,10,5,12,2,17,0.00,1,Rain,298
2013-7-18,89,79,69,77,71,66,100,80,49,30.24,30.18,30.11,10,10,7,7,2,,0.00,1,,189
2013-7-19,89,80,71,77,70,59,100,77,38,30.18,30.13,30.05,10,10,7,16,4,20,0.00,1,,162
2013-7-20,86,80,73,75,71,66,100,79,55,30.13,30.07,30.00,10,10,10,10,7,,0.00,5,,192
2013-7-21,87,80,73,77,72,68,100,83,52,30.10,30.04,29.98,10,10,10,10,7,,0.00,6,,222
2013-7-22,87,79,71,77,70,64,100,78,46,30.07,30.01,29.94,10,10,10,15,8,21,0.00,5,,233
2013-7-23,91,82,73,75,70,63,100,73,40,29.97,29.92,29.85,10,10,10,16,9,22,0.00,4,,243
2013-7-24,89,80,71,77,71,64,100,82,43,29.89,29.85,29.80,10,9,5,9,4,16,0.00,2,Rain,259
2013-7-25,89,79,69,73,69,63,100,74,43,30.05,29.94,29.84,10,9,4,9,4,,0.00,3,Rain,34
2013-7-26,87,78,69,73,69,61,100,76,40,30.13,30.07,30.04,10,10,5,12,4,,0.00,2,Rain,110
2013-7-27,86,78,69,79,73,64,100,90,62,30.08,30.02,29.95,10,9,0,22,6,33,0.00,5,Rain,165
2013-7-28,89,79,69,79,69,63,100,77,40,30.06,30.01,29.98,10,9,4,10,2,,0.00,3,Rain,220
2013-7-29,86,78,71,77,72,68,100,84,55,30.20,30.12,30.06,10,10,5,15,4,23,0.00,2,Rain,182
2013-7-30,87,78,69,77,71,68,100,81,52,30.23,30.19,30.16,10,9,3,10,2,,0.00,1,,81
2013-7-31,80,76,71,79,74,72,100,99,74,30.19,30.12,30.04,10,8,2,10,2,,0.00,4,Rain,148